sensor_id;sensor_type;location;lat;lon;timestamp;pressure;altitude;pressure_sealevel;temperature;humidity
77192;BME280;66172;48.526;8.078;2023-12-29T00:01:34;99772.22;;;9.27;90.49
77192;BME280;66172;48.526;8.078;2023-12-29T00:04:00;99778.59;;;9.22;90.86
77192;BME280;66172;48.526;8.078;2023-12-29T00:06:26;99781.31;;;9.31;90.67
77192;BME280;66172;48.526;8.078;2023-12-29T00:08:52;99785.31;;;9.25;91.06
77192;BME280;66172;48.526;8.078;2023-12-29T00:11:21;99793.13;;;9.26;91.48
77192;BME280;66172;48.526;8.078;2023-12-29T00:13:48;99783.72;;;9.15;92.54
77192;BME280;66172;48.526;8.078;2023-12-29T00:16:15;99776.22;;;9.12;91.39
77192;BME280;66172;48.526;8.078;2023-12-29T00:18:41;99782.44;;;9.21;92.20
77192;BME280;66172;48.526;8.078;2023-12-29T00:21:07;99776.06;;;9.17;92.83
77192;BME280;66172;48.526;8.078;2023-12-29T00:23:33;99786.44;;;9.24;92.71
77192;BME280;66172;48.526;8.078;2023-12-29T00:25:59;99778.44;;;9.19;92.15
77192;BME280;66172;48.526;8.078;2023-12-29T00:28:24;99786.41;;;9.15;92.77
77192;BME280;66172;48.526;8.078;2023-12-29T00:30:50;99774.31;;;9.21;92.43
77192;BME280;66172;48.526;8.078;2023-12-29T00:33:16;99784.34;;;9.12;92.35
77192;BME280;66172;48.526;8.078;2023-12-29T00:35:42;99781.34;;;9.14;92.31
77192;BME280;66172;48.526;8.078;2023-12-29T00:38:08;99779.56;;;9.09;91.92
77192;BME280;66172;48.526;8.078;2023-12-29T00:40:34;99785.81;;;9.10;92.21
77192;BME280;66172;48.526;8.078;2023-12-29T00:43:00;99785.34;;;9.08;92.83
77192;BME280;66172;48.526;8.078;2023-12-29T00:45:27;99787.72;;;9.09;93.01
77192;BME280;66172;48.526;8.078;2023-12-29T00:47:59;99790.44;;;9.18;92.87
77192;BME280;66172;48.526;8.078;2023-12-29T00:50:25;99774.97;;;9.18;92.63
77192;BME280;66172;48.526;8.078;2023-12-29T00:52:52;99784.69;;;9.28;86.49
77192;BME280;66172;48.526;8.078;2023-12-29T00:55:18;99774.75;;;9.40;86.53
77192;BME280;66172;48.526;8.078;2023-12-29T00:57:44;99764.84;;;9.44;83.60
77192;BME280;66172;48.526;8.078;2023-12-29T01:00:11;99768.81;;;9.56;82.57
77192;BME280;66172;48.526;8.078;2023-12-29T01:02:38;99767.84;;;9.60;82.68
77192;BME280;66172;48.526;8.078;2023-12-29T01:05:04;99758.41;;;9.66;81.81
77192;BME280;66172;48.526;8.078;2023-12-29T01:07:30;99754.06;;;9.74;80.19
77192;BME280;66172;48.526;8.078;2023-12-29T01:09:56;99755.03;;;9.78;80.32
77192;BME280;66172;48.526;8.078;2023-12-29T01:12:22;99767.59;;;9.82;81.88
77192;BME280;66172;48.526;8.078;2023-12-29T01:14:48;99764.28;;;9.77;82.66
77192;BME280;66172;48.526;8.078;2023-12-29T01:17:14;99762.81;;;9.79;80.24
77192;BME280;66172;48.526;8.078;2023-12-29T01:19:39;99766.31;;;9.88;81.18
77192;BME280;66172;48.526;8.078;2023-12-29T01:22:05;99763.41;;;9.93;81.30
77192;BME280;66172;48.526;8.078;2023-12-29T01:24:31;99761.50;;;9.85;83.54
77192;BME280;66172;48.526;8.078;2023-12-29T01:26:57;99765.69;;;9.83;84.96
77192;BME280;66172;48.526;8.078;2023-12-29T01:29:23;99769.50;;;9.82;83.73
77192;BME280;66172;48.526;8.078;2023-12-29T01:31:49;99759.78;;;9.81;83.97
77192;BME280;66172;48.526;8.078;2023-12-29T01:34:15;99756.38;;;9.92;81.96
77192;BME280;66172;48.526;8.078;2023-12-29T01:36:40;99762.81;;;9.88;80.39
77192;BME280;66172;48.526;8.078;2023-12-29T01:39:06;99760.41;;;9.86;81.37
77192;BME280;66172;48.526;8.078;2023-12-29T01:41:32;99770.75;;;9.93;79.35
77192;BME280;66172;48.526;8.078;2023-12-29T01:46:29;99760.31;;;10.03;78.57
77192;BME280;66172;48.526;8.078;2023-12-29T01:48:57;99768.75;;;10.11;78.84
77192;BME280;66172;48.526;8.078;2023-12-29T01:51:25;99778.19;;;10.13;78.67
77192;BME280;66172;48.526;8.078;2023-12-29T01:53:54;99772.44;;;10.15;77.45
77192;BME280;66172;48.526;8.078;2023-12-29T01:56:21;99776.13;;;10.19;77.28
77192;BME280;66172;48.526;8.078;2023-12-29T01:58:49;99771.00;;;10.17;77.20
77192;BME280;66172;48.526;8.078;2023-12-29T02:01:15;99786.22;;;10.39;75.79
77192;BME280;66172;48.526;8.078;2023-12-29T02:03:43;99748.69;;;10.32;76.39
77192;BME280;66172;48.526;8.078;2023-12-29T02:06:10;99741.06;;;10.26;77.12
77192;BME280;66172;48.526;8.078;2023-12-29T02:08:40;99753.41;;;10.23;77.69
77192;BME280;66172;48.526;8.078;2023-12-29T02:11:06;99743.13;;;10.29;76.07
77192;BME280;66172;48.526;8.078;2023-12-29T02:13:32;99737.53;;;10.25;76.70
77192;BME280;66172;48.526;8.078;2023-12-29T02:16:06;99735.94;;;10.24;76.62
77192;BME280;66172;48.526;8.078;2023-12-29T02:18:34;99740.75;;;10.27;76.09
77192;BME280;66172;48.526;8.078;2023-12-29T02:21:02;99733.22;;;10.24;76.83
77192;BME280;66172;48.526;8.078;2023-12-29T02:23:29;99738.53;;;10.21;76.83
77192;BME280;66172;48.526;8.078;2023-12-29T02:26:01;99726.53;;;10.22;77.08
77192;BME280;66172;48.526;8.078;2023-12-29T02:28:28;99719.50;;;10.21;77.18
77192;BME280;66172;48.526;8.078;2023-12-29T02:31:06;99721.44;;;10.20;77.55
77192;BME280;66172;48.526;8.078;2023-12-29T02:33:38;99736.16;;;10.19;78.31
77192;BME280;66172;48.526;8.078;2023-12-29T02:36:04;99728.00;;;10.19;77.33
77192;BME280;66172;48.526;8.078;2023-12-29T02:38:31;99709.91;;;10.23;77.31
77192;BME280;66172;48.526;8.078;2023-12-29T02:40:58;99704.34;;;10.20;77.13
77192;BME280;66172;48.526;8.078;2023-12-29T02:43:24;99713.94;;;10.17;77.66
77192;BME280;66172;48.526;8.078;2023-12-29T02:45:50;99717.25;;;10.23;77.59
77192;BME280;66172;48.526;8.078;2023-12-29T02:48:16;99724.44;;;10.27;78.13
77192;BME280;66172;48.526;8.078;2023-12-29T02:50:42;99719.19;;;10.22;78.23
77192;BME280;66172;48.526;8.078;2023-12-29T02:53:08;99717.44;;;10.18;77.39
77192;BME280;66172;48.526;8.078;2023-12-29T02:55:34;99705.16;;;10.20;76.63
77192;BME280;66172;48.526;8.078;2023-12-29T02:58:00;99709.56;;;10.25;77.18
77192;BME280;66172;48.526;8.078;2023-12-29T03:00:26;99706.66;;;10.30;77.25
77192;BME280;66172;48.526;8.078;2023-12-29T03:02:52;99701.09;;;10.26;77.60
77192;BME280;66172;48.526;8.078;2023-12-29T03:05:18;99701.75;;;10.23;77.45
77192;BME280;66172;48.526;8.078;2023-12-29T03:07:43;99697.91;;;10.24;78.11
77192;BME280;66172;48.526;8.078;2023-12-29T03:10:09;99697.06;;;10.32;77.59
77192;BME280;66172;48.526;8.078;2023-12-29T03:12:35;99696.59;;;10.30;77.52
77192;BME280;66172;48.526;8.078;2023-12-29T03:15:02;99706.16;;;10.36;77.79
77192;BME280;66172;48.526;8.078;2023-12-29T03:17:28;99707.25;;;10.35;77.39
77192;BME280;66172;48.526;8.078;2023-12-29T03:19:54;99699.03;;;10.23;78.54
77192;BME280;66172;48.526;8.078;2023-12-29T03:22:20;99710.09;;;10.18;78.76
77192;BME280;66172;48.526;8.078;2023-12-29T03:24:46;99707.72;;;10.17;78.93
77192;BME280;66172;48.526;8.078;2023-12-29T03:27:12;99698.28;;;10.14;78.72
77192;BME280;66172;48.526;8.078;2023-12-29T03:29:38;99702.28;;;10.17;79.68
77192;BME280;66172;48.526;8.078;2023-12-29T03:32:04;99709.47;;;10.13;79.98
77192;BME280;66172;48.526;8.078;2023-12-29T03:34:30;99714.09;;;10.12;80.50
77192;BME280;66172;48.526;8.078;2023-12-29T03:36:56;99707.56;;;10.13;79.53
77192;BME280;66172;48.526;8.078;2023-12-29T03:39:22;99706.13;;;10.16;79.13
77192;BME280;66172;48.526;8.078;2023-12-29T03:41:49;99704.66;;;10.18;79.53
77192;BME280;66172;48.526;8.078;2023-12-29T03:44:15;99701.94;;;10.18;79.77
77192;BME280;66172;48.526;8.078;2023-12-29T03:46:41;99694.06;;;10.25;79.24
77192;BME280;66172;48.526;8.078;2023-12-29T03:49:06;99699.91;;;10.36;78.98
77192;BME280;66172;48.526;8.078;2023-12-29T03:51:32;99702.88;;;10.22;79.78
77192;BME280;66172;48.526;8.078;2023-12-29T03:53:58;99699.72;;;10.20;80.58
77192;BME280;66172;48.526;8.078;2023-12-29T03:56:24;99694.41;;;10.24;80.60
77192;BME280;66172;48.526;8.078;2023-12-29T03:58:50;99705.16;;;10.20;80.78
77192;BME280;66172;48.526;8.078;2023-12-29T04:01:17;99704.84;;;10.13;81.11
77192;BME280;66172;48.526;8.078;2023-12-29T04:03:43;99691.25;;;10.13;81.15
77192;BME280;66172;48.526;8.078;2023-12-29T04:06:09;99680.03;;;10.23;80.93
77192;BME280;66172;48.526;8.078;2023-12-29T04:08:36;99678.44;;;10.14;81.83
77192;BME280;66172;48.526;8.078;2023-12-29T04:11:02;99684.88;;;10.09;81.73
77192;BME280;66172;48.526;8.078;2023-12-29T04:13:29;99683.41;;;10.12;81.65
77192;BME280;66172;48.526;8.078;2023-12-29T04:15:55;99684.03;;;10.17;81.60
77192;BME280;66172;48.526;8.078;2023-12-29T04:18:22;99693.00;;;10.18;82.20
77192;BME280;66172;48.526;8.078;2023-12-29T04:20:49;99701.63;;;10.11;82.35
77192;BME280;66172;48.526;8.078;2023-12-29T04:23:15;99684.69;;;10.14;82.12
77192;BME280;66172;48.526;8.078;2023-12-29T04:25:41;99705.47;;;10.10;82.48
77192;BME280;66172;48.526;8.078;2023-12-29T04:28:07;99693.69;;;10.06;82.94
77192;BME280;66172;48.526;8.078;2023-12-29T04:30:34;99682.16;;;10.09;82.88
77192;BME280;66172;48.526;8.078;2023-12-29T04:33:00;99682.47;;;10.16;82.63
77192;BME280;66172;48.526;8.078;2023-12-29T04:35:26;99684.53;;;10.11;82.73
77192;BME280;66172;48.526;8.078;2023-12-29T04:37:52;99682.97;;;10.10;83.42
77192;BME280;66172;48.526;8.078;2023-12-29T04:40:18;99678.16;;;10.15;83.24
77192;BME280;66172;48.526;8.078;2023-12-29T04:42:44;99668.56;;;10.09;83.13
77192;BME280;66172;48.526;8.078;2023-12-29T04:45:10;99682.03;;;10.06;83.52
77192;BME280;66172;48.526;8.078;2023-12-29T04:47:37;99678.50;;;10.05;83.80
77192;BME280;66172;48.526;8.078;2023-12-29T04:50:03;99680.28;;;10.01;83.93
77192;BME280;66172;48.526;8.078;2023-12-29T04:52:29;99686.66;;;10.05;84.26
77192;BME280;66172;48.526;8.078;2023-12-29T04:54:55;99687.63;;;10.00;84.40
77192;BME280;66172;48.526;8.078;2023-12-29T04:57:21;99696.25;;;10.02;84.40
77192;BME280;66172;48.526;8.078;2023-12-29T04:59:47;99690.03;;;10.02;85.09
77192;BME280;66172;48.526;8.078;2023-12-29T05:02:13;99695.91;;;10.04;84.38
77192;BME280;66172;48.526;8.078;2023-12-29T05:04:39;99689.22;;;10.01;84.89
77192;BME280;66172;48.526;8.078;2023-12-29T05:07:05;99692.09;;;10.05;85.16
77192;BME280;66172;48.526;8.078;2023-12-29T05:09:31;99694.59;;;10.10;84.49
77192;BME280;66172;48.526;8.078;2023-12-29T05:11:57;99689.81;;;10.16;84.08
77192;BME280;66172;48.526;8.078;2023-12-29T05:14:23;99684.31;;;10.24;83.57
77192;BME280;66172;48.526;8.078;2023-12-29T05:16:49;99692.00;;;10.22;83.09
77192;BME280;66172;48.526;8.078;2023-12-29T05:19:15;99684.97;;;10.21;83.61
77192;BME280;66172;48.526;8.078;2023-12-29T05:21:41;99688.84;;;10.20;83.22
77192;BME280;66172;48.526;8.078;2023-12-29T05:24:08;99691.22;;;10.22;83.47
77192;BME280;66172;48.526;8.078;2023-12-29T05:26:33;99692.81;;;10.23;83.78
77192;BME280;66172;48.526;8.078;2023-12-29T05:28:59;99688.84;;;10.20;83.80
77192;BME280;66172;48.526;8.078;2023-12-29T05:31:25;99687.22;;;10.19;83.88
77192;BME280;66172;48.526;8.078;2023-12-29T05:33:51;99687.56;;;10.18;83.87
77192;BME280;66172;48.526;8.078;2023-12-29T05:36:17;99685.63;;;10.18;84.01
77192;BME280;66172;48.526;8.078;2023-12-29T05:38:45;99688.84;;;10.20;83.91
77192;BME280;66172;48.526;8.078;2023-12-29T05:41:13;99694.53;;;10.27;83.36
77192;BME280;66172;48.526;8.078;2023-12-29T05:43:39;99695.13;;;10.33;83.29
77192;BME280;66172;48.526;8.078;2023-12-29T05:46:11;99695.44;;;10.31;82.83
77192;BME280;66172;48.526;8.078;2023-12-29T05:48:38;99689.03;;;10.36;83.11
77192;BME280;66172;48.526;8.078;2023-12-29T05:51:10;99687.97;;;10.28;83.66
77192;BME280;66172;48.526;8.078;2023-12-29T05:53:39;99690.22;;;10.26;83.97
77192;BME280;66172;48.526;8.078;2023-12-29T05:56:06;99694.28;;;10.20;83.91
77192;BME280;66172;48.526;8.078;2023-12-29T05:58:32;99693.47;;;10.20;84.42
77192;BME280;66172;48.526;8.078;2023-12-29T06:00:58;99683.59;;;10.15;85.10
77192;BME280;66172;48.526;8.078;2023-12-29T06:03:27;99684.38;;;10.16;84.42
77192;BME280;66172;48.526;8.078;2023-12-29T06:05:53;99679.75;;;10.16;84.08
77192;BME280;66172;48.526;8.078;2023-12-29T06:08:19;99694.13;;;10.17;84.59
77192;BME280;66172;48.526;8.078;2023-12-29T06:10:45;99686.94;;;10.12;83.81
77192;BME280;66172;48.526;8.078;2023-12-29T06:13:11;99690.63;;;10.16;84.13
77192;BME280;66172;48.526;8.078;2023-12-29T06:15:37;99685.19;;;10.16;84.05
77192;BME280;66172;48.526;8.078;2023-12-29T06:18:04;99678.94;;;10.16;84.27
77192;BME280;66172;48.526;8.078;2023-12-29T06:20:30;99679.66;;;10.25;84.00
77192;BME280;66172;48.526;8.078;2023-12-29T06:22:56;99681.44;;;10.21;84.11
77192;BME280;66172;48.526;8.078;2023-12-29T06:25:22;99675.72;;;10.14;84.78
77192;BME280;66172;48.526;8.078;2023-12-29T06:27:48;99676.53;;;10.14;84.35
77192;BME280;66172;48.526;8.078;2023-12-29T06:30:14;99677.53;;;10.10;84.73
77192;BME280;66172;48.526;8.078;2023-12-29T06:32:40;99682.47;;;10.08;84.56
77192;BME280;66172;48.526;8.078;2023-12-29T06:35:07;99681.81;;;10.11;85.09
77192;BME280;66172;48.526;8.078;2023-12-29T06:37:38;99685.31;;;10.11;84.73
77192;BME280;66172;48.526;8.078;2023-12-29T06:40:07;99683.41;;;10.12;84.38
77192;BME280;66172;48.526;8.078;2023-12-29T06:42:33;99683.72;;;10.10;84.73
77192;BME280;66172;48.526;8.078;2023-12-29T06:44:59;99689.16;;;10.10;84.45
77192;BME280;66172;48.526;8.078;2023-12-29T06:47:25;99682.63;;;10.11;84.33
77192;BME280;66172;48.526;8.078;2023-12-29T06:49:51;99684.38;;;10.16;84.87
77192;BME280;66172;48.526;8.078;2023-12-29T06:52:17;99680.88;;;10.15;84.22
77192;BME280;66172;48.526;8.078;2023-12-29T06:54:43;99678.44;;;10.14;84.21
77192;BME280;66172;48.526;8.078;2023-12-29T06:57:09;99677.03;;;10.16;83.66
77192;BME280;66172;48.526;8.078;2023-12-29T06:59:35;99678.56;;;10.26;83.08
77192;BME280;66172;48.526;8.078;2023-12-29T07:02:01;99679.81;;;10.28;82.96
77192;BME280;66172;48.526;8.078;2023-12-29T07:04:26;99675.16;;;10.29;83.00
77192;BME280;66172;48.526;8.078;2023-12-29T07:06:52;99678.03;;;10.32;82.73
77192;BME280;66172;48.526;8.078;2023-12-29T07:09:18;99685.59;;;10.27;82.84
77192;BME280;66172;48.526;8.078;2023-12-29T07:11:48;99682.53;;;10.28;82.51
77192;BME280;66172;48.526;8.078;2023-12-29T07:14:16;99689.09;;;10.27;82.93
77192;BME280;66172;48.526;8.078;2023-12-29T07:16:43;99674.91;;;10.22;83.21
77192;BME280;66172;48.526;8.078;2023-12-29T07:19:09;99677.97;;;10.20;83.98
77192;BME280;66172;48.526;8.078;2023-12-29T07:21:35;99685.78;;;10.22;83.75
77192;BME280;66172;48.526;8.078;2023-12-29T07:24:01;99687.69;;;10.21;83.69
77192;BME280;66172;48.526;8.078;2023-12-29T07:26:27;99677.09;;;10.28;83.37
77192;BME280;66172;48.526;8.078;2023-12-29T07:28:53;99684.59;;;10.31;83.07
77192;BME280;66172;48.526;8.078;2023-12-29T07:31:22;99683.47;;;10.32;83.34
77192;BME280;66172;48.526;8.078;2023-12-29T07:33:49;99696.75;;;10.34;82.91
77192;BME280;66172;48.526;8.078;2023-12-29T07:36:15;99690.63;;;10.37;83.85
77192;BME280;66172;48.526;8.078;2023-12-29T07:38:41;99688.59;;;10.34;82.73
77192;BME280;66172;48.526;8.078;2023-12-29T07:41:08;99680.06;;;10.35;82.99
77192;BME280;66172;48.526;8.078;2023-12-29T07:43:34;99682.00;;;10.35;82.88
77192;BME280;66172;48.526;8.078;2023-12-29T07:46:02;99686.44;;;10.39;82.25
77192;BME280;66172;48.526;8.078;2023-12-29T07:48:27;99691.88;;;10.39;82.59
77192;BME280;66172;48.526;8.078;2023-12-29T07:50:54;99667.88;;;10.41;83.00
77192;BME280;66172;48.526;8.078;2023-12-29T07:53:24;99668.69;;;10.42;82.80
77192;BME280;66172;48.526;8.078;2023-12-29T07:55:50;99671.22;;;10.47;82.81
77192;BME280;66172;48.526;8.078;2023-12-29T07:58:18;99681.09;;;10.51;82.65
77192;BME280;66172;48.526;8.078;2023-12-29T08:00:43;99680.75;;;10.53;82.28
77192;BME280;66172;48.526;8.078;2023-12-29T08:03:09;99692.28;;;10.50;82.59
77192;BME280;66172;48.526;8.078;2023-12-29T08:05:35;99682.47;;;10.58;82.06
77192;BME280;66172;48.526;8.078;2023-12-29T08:08:01;99686.97;;;10.53;82.67
77192;BME280;66172;48.526;8.078;2023-12-29T08:10:27;99683.94;;;10.55;82.67
77192;BME280;66172;48.526;8.078;2023-12-29T08:12:53;99693.22;;;10.54;82.23
77192;BME280;66172;48.526;8.078;2023-12-29T08:15:20;99701.38;;;10.54;82.40
77192;BME280;66172;48.526;8.078;2023-12-29T08:17:46;99706.47;;;10.56;82.34
77192;BME280;66172;48.526;8.078;2023-12-29T08:20:12;99696.53;;;10.60;82.41
77192;BME280;66172;48.526;8.078;2023-12-29T08:22:37;99708.94;;;10.69;81.70
77192;BME280;66172;48.526;8.078;2023-12-29T08:25:04;99707.66;;;10.67;81.79
77192;BME280;66172;48.526;8.078;2023-12-29T08:27:30;99701.38;;;10.75;81.18
77192;BME280;66172;48.526;8.078;2023-12-29T08:29:56;99711.00;;;10.72;81.55
77192;BME280;66172;48.526;8.078;2023-12-29T08:32:21;99707.78;;;10.70;81.37
77192;BME280;66172;48.526;8.078;2023-12-29T08:34:48;99704.09;;;10.75;82.34
77192;BME280;66172;48.526;8.078;2023-12-29T08:37:14;99706.81;;;10.75;81.68
77192;BME280;66172;48.526;8.078;2023-12-29T08:39:48;99717.38;;;10.76;81.97
77192;BME280;66172;48.526;8.078;2023-12-29T08:42:15;99716.09;;;10.74;82.13
77192;BME280;66172;48.526;8.078;2023-12-29T08:44:41;99729.22;;;10.72;81.82
77192;BME280;66172;48.526;8.078;2023-12-29T08:47:07;99718.81;;;10.74;82.07
77192;BME280;66172;48.526;8.078;2023-12-29T08:49:36;99711.81;;;10.73;82.48
77192;BME280;66172;48.526;8.078;2023-12-29T08:52:02;99716.44;;;10.72;82.63
77192;BME280;66172;48.526;8.078;2023-12-29T08:54:28;99718.50;;;10.75;83.23
77192;BME280;66172;48.526;8.078;2023-12-29T08:56:54;99714.66;;;10.76;83.54
77192;BME280;66172;48.526;8.078;2023-12-29T08:59:20;99718.50;;;10.75;84.00
77192;BME280;66172;48.526;8.078;2023-12-29T09:01:46;99725.31;;;10.81;83.80
77192;BME280;66172;48.526;8.078;2023-12-29T09:04:12;99724.50;;;10.81;84.20
77192;BME280;66172;48.526;8.078;2023-12-29T09:06:38;99728.50;;;10.83;84.51
77192;BME280;66172;48.526;8.078;2023-12-29T09:09:04;99742.03;;;10.92;84.29
77192;BME280;66172;48.526;8.078;2023-12-29T09:11:30;99745.53;;;10.92;84.60
77192;BME280;66172;48.526;8.078;2023-12-29T09:13:56;99752.19;;;11.03;82.06
77192;BME280;66172;48.526;8.078;2023-12-29T09:16:22;99741.63;;;11.02;80.96
77192;BME280;66172;48.526;8.078;2023-12-29T09:18:48;99754.91;;;11.03;81.60
77192;BME280;66172;48.526;8.078;2023-12-29T09:21:14;99734.13;;;10.99;80.33
77192;BME280;66172;48.526;8.078;2023-12-29T09:23:40;99739.69;;;11.02;80.93
77192;BME280;66172;48.526;8.078;2023-12-29T09:26:06;99744.81;;;11.04;81.12
77192;BME280;66172;48.526;8.078;2023-12-29T09:28:32;99759.66;;;11.07;82.10
77192;BME280;66172;48.526;8.078;2023-12-29T09:30:58;99743.34;;;11.07;80.92
77192;BME280;66172;48.526;8.078;2023-12-29T09:33:26;99753.25;;;11.23;80.57
77192;BME280;66172;48.526;8.078;2023-12-29T09:35:52;99747.88;;;11.35;81.38
77192;BME280;66172;48.526;8.078;2023-12-29T09:38:18;99747.06;;;11.35;78.70
77192;BME280;66172;48.526;8.078;2023-12-29T09:40:45;99744.63;;;11.54;77.47
77192;BME280;66172;48.526;8.078;2023-12-29T09:43:12;99737.91;;;11.51;77.90
77192;BME280;66172;48.526;8.078;2023-12-29T09:45:41;99744.72;;;11.58;78.51
77192;BME280;66172;48.526;8.078;2023-12-29T09:48:11;99748.50;;;11.65;78.32
77192;BME280;66172;48.526;8.078;2023-12-29T09:50:39;99741.81;;;11.63;77.52
77192;BME280;66172;48.526;8.078;2023-12-29T09:53:06;99741.13;;;11.66;77.96
77192;BME280;66172;48.526;8.078;2023-12-29T09:55:32;99740.13;;;11.70;78.26
77192;BME280;66172;48.526;8.078;2023-12-29T09:58:00;99733.94;;;11.82;78.35
77192;BME280;66172;48.526;8.078;2023-12-29T10:00:26;99732.66;;;11.79;77.37
77192;BME280;66172;48.526;8.078;2023-12-29T10:02:54;99739.38;;;11.82;77.50
77192;BME280;66172;48.526;8.078;2023-12-29T10:05:20;99728.16;;;11.95;77.78
77192;BME280;66172;48.526;8.078;2023-12-29T10:07:46;99737.56;;;12.22;77.33
77192;BME280;66172;48.526;8.078;2023-12-29T10:10:16;99724.16;;;12.29;75.83
77192;BME280;66172;48.526;8.078;2023-12-29T10:12:43;99727.78;;;12.33;75.19
77192;BME280;66172;48.526;8.078;2023-12-29T10:15:16;99712.53;;;12.32;75.03
77192;BME280;66172;48.526;8.078;2023-12-29T10:20:53;99712.97;;;12.46;73.77
77192;BME280;66172;48.526;8.078;2023-12-29T10:23:34;99702.84;;;12.59;74.12
77192;BME280;66172;48.526;8.078;2023-12-29T10:26:03;99707.41;;;12.55;72.78
77192;BME280;66172;48.526;8.078;2023-12-29T10:28:30;99702.78;;;12.31;72.70
77192;BME280;66172;48.526;8.078;2023-12-29T10:30:56;99698.69;;;12.37;73.41
77192;BME280;66172;48.526;8.078;2023-12-29T10:33:21;99696.97;;;12.33;72.99
77192;BME280;66172;48.526;8.078;2023-12-29T10:35:57;99685.91;;;12.53;71.79
77192;BME280;66172;48.526;8.078;2023-12-29T10:38:23;99692.38;;;12.49;72.47
77192;BME280;66172;48.526;8.078;2023-12-29T10:40:49;99686.00;;;12.57;72.52
77192;BME280;66172;48.526;8.078;2023-12-29T10:43:22;99687.34;;;12.63;71.66
77192;BME280;66172;48.526;8.078;2023-12-29T10:45:48;99682.19;;;12.46;71.31
77192;BME280;66172;48.526;8.078;2023-12-29T10:48:21;99678.41;;;12.50;71.02
77192;BME280;66172;48.526;8.078;2023-12-29T10:50:48;99670.31;;;12.66;70.62
77192;BME280;66172;48.526;8.078;2023-12-29T10:53:14;99669.16;;;12.67;70.38
77192;BME280;66172;48.526;8.078;2023-12-29T10:55:43;99667.72;;;12.85;69.51
77192;BME280;66172;48.526;8.078;2023-12-29T10:58:09;99663.13;;;13.01;68.61
77192;BME280;66172;48.526;8.078;2023-12-29T11:00:35;99666.53;;;13.26;67.77
77192;BME280;66172;48.526;8.078;2023-12-29T11:03:01;99658.53;;;13.06;67.30
77192;BME280;66172;48.526;8.078;2023-12-29T11:05:27;99665.47;;;13.15;67.89
77192;BME280;66172;48.526;8.078;2023-12-29T11:07:54;99661.56;;;13.16;68.02
77192;BME280;66172;48.526;8.078;2023-12-29T11:10:21;99658.78;;;13.28;67.78
77192;BME280;66172;48.526;8.078;2023-12-29T11:12:48;99659.56;;;13.29;67.42
77192;BME280;66172;48.526;8.078;2023-12-29T11:15:15;99647.84;;;13.28;68.10
77192;BME280;66172;48.526;8.078;2023-12-29T11:17:43;99641.31;;;13.17;67.99
77192;BME280;66172;48.526;8.078;2023-12-29T11:20:16;99644.84;;;13.18;68.24
77192;BME280;66172;48.526;8.078;2023-12-29T11:22:43;99640.63;;;13.20;68.14
77192;BME280;66172;48.526;8.078;2023-12-29T11:25:11;99638.28;;;13.07;68.23
77192;BME280;66172;48.526;8.078;2023-12-29T11:27:37;99643.97;;;13.14;67.90
77192;BME280;66172;48.526;8.078;2023-12-29T11:30:04;99637.16;;;13.08;68.74
77192;BME280;66172;48.526;8.078;2023-12-29T11:32:50;99630.34;;;13.01;67.79
77192;BME280;66172;48.526;8.078;2023-12-29T11:35:23;99627.81;;;13.09;67.87
77192;BME280;66172;48.526;8.078;2023-12-29T11:38:00;99625.41;;;13.07;68.03
77192;BME280;66172;48.526;8.078;2023-12-29T11:43:01;99621.09;;;13.06;65.98
77192;BME280;66172;48.526;8.078;2023-12-29T11:45:31;99631.50;;;13.44;65.47
77192;BME280;66172;48.526;8.078;2023-12-29T11:48:01;99631.81;;;13.27;64.26
77192;BME280;66172;48.526;8.078;2023-12-29T11:50:30;99615.25;;;13.35;65.18
77192;BME280;66172;48.526;8.078;2023-12-29T11:52:56;99613.66;;;13.34;65.58
77192;BME280;66172;48.526;8.078;2023-12-29T11:55:28;99608.56;;;13.33;64.12
77192;BME280;66172;48.526;8.078;2023-12-29T11:57:54;99604.25;;;13.32;64.51
77192;BME280;66172;48.526;8.078;2023-12-29T12:00:20;99609.53;;;13.40;63.42
77192;BME280;66172;48.526;8.078;2023-12-29T12:02:46;99598.75;;;13.16;65.11
77192;BME280;66172;48.526;8.078;2023-12-29T12:05:46;99601.25;;;13.21;65.89
77192;BME280;66172;48.526;8.078;2023-12-29T12:08:27;99605.31;;;13.43;62.62
77192;BME280;66172;48.526;8.078;2023-12-29T12:10:54;99593.59;;;13.93;60.22
77192;BME280;66172;48.526;8.078;2023-12-29T12:13:45;99588.50;;;13.76;60.66
77192;BME280;66172;48.526;8.078;2023-12-29T12:19:08;99597.00;;;13.71;59.95
77192;BME280;66172;48.526;8.078;2023-12-29T12:21:35;99595.13;;;13.75;59.55
77192;BME280;66172;48.526;8.078;2023-12-29T12:24:03;99593.53;;;13.89;59.80
77192;BME280;66172;48.526;8.078;2023-12-29T12:26:31;99584.72;;;13.80;60.57
77192;BME280;66172;48.526;8.078;2023-12-29T12:28:57;99590.97;;;13.81;59.18
77192;BME280;66172;48.526;8.078;2023-12-29T12:31:23;99586.88;;;13.90;59.02
77192;BME280;66172;48.526;8.078;2023-12-29T12:33:55;99592.47;;;13.78;59.94
77192;BME280;66172;48.526;8.078;2023-12-29T12:36:24;99589.47;;;13.83;60.83
77192;BME280;66172;48.526;8.078;2023-12-29T12:38:55;99590.38;;;13.72;60.68
77192;BME280;66172;48.526;8.078;2023-12-29T12:41:25;99600.69;;;13.63;59.81
77192;BME280;66172;48.526;8.078;2023-12-29T12:46:33;99601.88;;;13.46;60.95
77192;BME280;66172;48.526;8.078;2023-12-29T12:48:59;99607.03;;;13.67;59.15
77192;BME280;66172;48.526;8.078;2023-12-29T12:51:25;99592.56;;;13.66;58.83
77192;BME280;66172;48.526;8.078;2023-12-29T12:53:51;99596.81;;;13.48;60.38
77192;BME280;66172;48.526;8.078;2023-12-29T12:56:19;99596.59;;;13.22;60.96
77192;BME280;66172;48.526;8.078;2023-12-29T12:58:46;99608.63;;;13.21;61.21
77192;BME280;66172;48.526;8.078;2023-12-29T13:01:12;99596.66;;;13.41;59.51
77192;BME280;66172;48.526;8.078;2023-12-29T13:03:39;99609.97;;;13.27;59.40
77192;BME280;66172;48.526;8.078;2023-12-29T13:06:05;99600.81;;;13.35;59.42
77192;BME280;66172;48.526;8.078;2023-12-29T13:08:33;99609.63;;;13.44;59.20
77192;BME280;66172;48.526;8.078;2023-12-29T13:10:59;99601.66;;;13.23;59.78
77192;BME280;66172;48.526;8.078;2023-12-29T13:13:36;99615.69;;;13.22;59.34
77192;BME280;66172;48.526;8.078;2023-12-29T13:16:02;99608.66;;;13.36;57.63